createdAt,value
2022-10-19T00:01:14.362Z,84.67
2022-10-19T00:03:43.165Z,84.21
2022-10-19T00:06:15.269Z,83.87
2022-10-19T00:08:43.647Z,84.15
2022-10-19T00:11:12.457Z,83.62
2022-10-19T00:13:40.999Z,84.53
2022-10-19T00:16:11.738Z,85.02
2022-10-19T00:18:40.365Z,85.03
2022-10-19T00:21:10.101Z,84.94
2022-10-19T00:23:39.686Z,85.41
2022-10-19T00:26:08.676Z,84.68
2022-10-19T00:28:36.906Z,84.80
2022-10-19T00:31:05.793Z,86.26
2022-10-19T00:33:33.913Z,85.63
2022-10-19T00:36:02.518Z,85.48
2022-10-19T00:38:30.632Z,85.74
2022-10-19T00:41:00.173Z,84.81
2022-10-19T00:43:31.388Z,85.64
2022-10-19T00:45:59.658Z,86.08
2022-10-19T00:48:31.536Z,85.44
2022-10-19T00:51:01.345Z,85.00
2022-10-19T00:53:31.607Z,84.79
2022-10-19T00:56:06.861Z,84.73
2022-10-19T00:58:35.270Z,85.03
2022-10-19T01:01:17.060Z,84.93
2022-10-19T01:03:46.199Z,85.72
2022-10-19T01:06:15.852Z,85.77
2022-10-19T01:08:43.960Z,84.97
2022-10-19T01:11:25.065Z,84.63
2022-10-19T01:14:05.324Z,84.81
2022-10-19T01:16:43.766Z,84.91
2022-10-19T01:19:37.010Z,84.94
2022-10-19T01:22:17.896Z,85.67
2022-10-19T01:25:06.279Z,85.61
2022-10-19T01:27:56.532Z,85.49
2022-10-19T01:30:36.021Z,85.10
2022-10-19T01:33:12.515Z,84.94
2022-10-19T01:35:48.338Z,86.31
2022-10-19T01:38:25.195Z,86.73
2022-10-19T01:40:59.571Z,86.66
2022-10-19T01:43:38.527Z,86.49
2022-10-19T01:46:13.136Z,86.04
2022-10-19T01:48:46.039Z,85.72
2022-10-19T01:51:18.887Z,84.91
2022-10-19T01:53:54.096Z,84.65
2022-10-19T01:56:27.944Z,84.48
2022-10-19T01:58:59.318Z,85.35
2022-10-19T02:01:34.289Z,86.07
2022-10-19T02:04:03.396Z,87.22
2022-10-19T02:06:31.621Z,85.81
2022-10-19T02:09:00.178Z,86.40
2022-10-19T02:11:28.867Z,86.38
2022-10-19T02:14:02.473Z,86.03
2022-10-19T02:16:36.023Z,85.79
2022-10-19T02:19:08.573Z,85.11
2022-10-19T02:21:36.930Z,85.32
2022-10-19T02:24:05.257Z,84.42
2022-10-19T02:26:33.795Z,84.28
2022-10-19T02:29:01.942Z,83.79
2022-10-19T02:31:30.235Z,83.44
2022-10-19T02:34:00.061Z,82.65
2022-10-19T02:36:28.231Z,82.62
2022-10-19T02:38:56.313Z,82.57
2022-10-19T02:41:28.383Z,82.40
2022-10-19T02:44:02.192Z,82.66
2022-10-19T02:46:36.095Z,82.72
2022-10-19T02:49:07.809Z,84.37
2022-10-19T02:51:37.500Z,84.08
2022-10-19T02:54:07.731Z,83.98
2022-10-19T02:56:36.629Z,83.43
2022-10-19T02:59:04.877Z,84.18
2022-10-19T03:01:33.054Z,83.87
2022-10-19T03:04:01.035Z,83.04
2022-10-19T03:06:30.676Z,81.83
2022-10-19T03:08:58.627Z,81.44
2022-10-19T03:11:27.275Z,80.86
2022-10-19T03:13:55.246Z,81.74
2022-10-19T03:16:23.235Z,81.60
2022-10-19T03:18:51.943Z,81.82
2022-10-19T03:21:20.544Z,81.73
2022-10-19T03:23:50.159Z,81.99
2022-10-19T03:26:19.002Z,82.40
2022-10-19T03:28:47.113Z,80.89
2022-10-19T03:31:15.095Z,81.10
2022-10-19T03:33:43.103Z,81.66
2022-10-19T03:36:15.200Z,81.99
2022-10-19T03:38:43.192Z,82.10
2022-10-19T03:41:13.383Z,81.78
2022-10-19T03:43:42.244Z,82.00
2022-10-19T03:46:10.709Z,82.25
2022-10-19T03:48:38.955Z,82.34
2022-10-19T03:51:08.824Z,82.92
2022-10-19T03:53:37.304Z,83.11
2022-10-19T03:56:07.603Z,83.22
2022-10-19T03:58:38.083Z,83.12
2022-10-19T04:01:09.500Z,83.64
2022-10-19T04:03:37.784Z,83.83
2022-10-19T04:06:07.930Z,81.97
2022-10-19T04:08:38.035Z,80.25
2022-10-19T04:11:08.497Z,79.54
2022-10-19T04:13:38.145Z,78.44
2022-10-19T04:16:06.835Z,78.32
2022-10-19T04:18:35.327Z,78.10
2022-10-19T04:21:05.166Z,78.23
2022-10-19T04:23:34.793Z,78.12
2022-10-19T04:26:03.368Z,78.21
2022-10-19T04:28:31.957Z,78.13
2022-10-19T04:31:03.299Z,77.91
2022-10-19T04:33:31.588Z,77.72
2022-10-19T04:36:00.311Z,77.81
2022-10-19T04:38:28.318Z,78.19
2022-10-19T04:40:56.428Z,78.58
2022-10-19T04:43:24.706Z,78.95
2022-10-19T04:45:52.702Z,79.26
2022-10-19T04:48:22.414Z,79.55
2022-10-19T04:50:56.398Z,80.00
2022-10-19T04:55:52.823Z,79.98
2022-10-19T04:58:20.956Z,80.27
2022-10-19T05:00:49.182Z,80.53
2022-10-19T05:03:17.569Z,81.53
2022-10-19T05:05:47.207Z,81.82
2022-10-19T05:08:15.153Z,82.75
2022-10-19T05:10:47.661Z,82.30
2022-10-19T05:13:16.008Z,84.31
2022-10-19T05:15:44.011Z,84.95
2022-10-19T05:18:11.944Z,84.81
2022-10-19T05:20:39.884Z,85.56
2022-10-19T05:23:09.527Z,85.52
2022-10-19T05:25:37.487Z,85.11
2022-10-19T05:28:05.501Z,84.95
2022-10-19T05:30:33.613Z,85.05
2022-10-19T05:33:01.597Z,86.00
2022-10-19T05:35:29.612Z,86.30
2022-10-19T05:37:57.621Z,85.98
2022-10-19T05:40:27.548Z,85.71
2022-10-19T05:42:55.795Z,86.02
2022-10-19T05:45:25.827Z,86.40
2022-10-19T05:47:53.811Z,86.72
2022-10-19T05:50:21.907Z,86.95
2022-10-19T05:52:50.110Z,86.85
2022-10-19T05:55:18.310Z,86.64
2022-10-19T05:57:47.681Z,86.57
2022-10-19T06:00:16.314Z,86.71
2022-10-19T06:02:44.360Z,86.65
2022-10-19T06:05:12.353Z,86.27
2022-10-19T06:07:40.598Z,86.30
2022-10-19T06:10:10.295Z,86.24
2022-10-19T06:12:39.046Z,86.50
2022-10-19T06:15:09.510Z,86.91
2022-10-19T06:17:37.514Z,86.81
2022-10-19T06:20:06.914Z,86.59
2022-10-19T06:22:34.890Z,86.48
2022-10-19T06:25:02.923Z,86.36
2022-10-19T06:27:33.592Z,86.08
2022-10-19T06:30:01.911Z,86.49
2022-10-19T06:32:32.416Z,85.93
2022-10-19T06:35:00.396Z,85.41
2022-10-19T06:37:28.395Z,85.17
2022-10-19T06:39:56.444Z,84.37
2022-10-19T06:42:24.521Z,84.78
2022-10-19T06:44:52.530Z,84.73
2022-10-19T06:47:20.495Z,85.11
2022-10-19T06:49:49.871Z,85.62
2022-10-19T06:52:17.890Z,84.72
2022-10-19T06:54:45.889Z,85.01
2022-10-19T06:57:13.871Z,86.00
2022-10-19T06:59:41.817Z,86.00
2022-10-19T07:02:11.816Z,84.96
2022-10-19T07:04:40.128Z,84.64
2022-10-19T07:07:09.746Z,84.95
2022-10-19T07:09:39.941Z,84.28
2022-10-19T07:12:10.573Z,83.35
2022-10-19T07:14:39.978Z,82.89
2022-10-19T07:17:08.323Z,82.37
2022-10-19T07:19:36.403Z,81.96
2022-10-19T07:22:04.831Z,81.58
2022-10-19T07:24:34.153Z,81.08
2022-10-19T07:27:02.501Z,80.72
2022-10-19T07:29:30.496Z,80.17
2022-10-19T07:32:00.552Z,80.20
2022-10-19T07:34:29.226Z,79.77
2022-10-19T07:36:57.265Z,78.79
2022-10-19T07:39:25.422Z,79.04
2022-10-19T07:41:54.839Z,78.69
2022-10-19T07:44:22.834Z,78.74
2022-10-19T07:46:51.819Z,78.98
2022-10-19T07:49:20.786Z,77.78
2022-10-19T07:51:53.862Z,77.15
2022-10-19T07:54:22.668Z,77.38
2022-10-19T07:56:50.580Z,76.71
2022-10-19T07:59:20.880Z,76.60
2022-10-19T08:01:50.136Z,75.73
2022-10-19T08:07:06.619Z,74.87
2022-10-19T08:09:53.936Z,74.54
2022-10-19T08:12:22.453Z,74.48
2022-10-19T08:14:52.429Z,74.42
2022-10-19T08:17:20.609Z,74.34
2022-10-19T08:19:48.557Z,72.83
2022-10-19T08:22:16.840Z,72.13
2022-10-19T08:24:44.849Z,72.74
2022-10-19T08:27:12.922Z,71.08
2022-10-19T08:29:41.050Z,70.86
2022-10-19T08:32:10.457Z,70.42
2022-10-19T08:34:42.668Z,69.85
2022-10-19T08:37:20.185Z,70.83
2022-10-19T08:39:59.096Z,69.54
2022-10-19T08:42:34.006Z,70.22
2022-10-19T08:45:22.189Z,68.09
2022-10-19T08:48:00.482Z,68.36
2022-10-19T08:50:35.778Z,67.44
2022-10-19T08:53:06.260Z,68.11
2022-10-19T08:55:44.507Z,67.40
2022-10-19T08:58:32.531Z,67.01
2022-10-19T09:01:05.697Z,66.81
2022-10-19T09:03:57.724Z,67.16
2022-10-19T09:06:30.680Z,67.05
2022-10-19T09:08:59.931Z,67.03
2022-10-19T09:11:33.873Z,67.42
2022-10-19T09:14:06.844Z,66.80
2022-10-19T09:16:36.025Z,66.43
2022-10-19T09:19:14.311Z,67.33
2022-10-19T09:21:48.325Z,66.39
2022-10-19T09:24:29.006Z,66.22
2022-10-19T09:26:59.208Z,65.75
2022-10-19T09:29:35.632Z,65.03
2022-10-19T09:32:12.364Z,65.87
2022-10-19T09:34:45.510Z,65.53
2022-10-19T09:37:21.167Z,65.14
2022-10-19T09:39:54.173Z,65.21
2022-10-19T09:42:29.167Z,62.62
2022-10-19T09:44:58.296Z,62.78
2022-10-19T09:47:37.421Z,62.69
2022-10-19T09:50:25.882Z,61.99
2022-10-19T09:52:56.471Z,61.22
2022-10-19T09:55:31.659Z,61.06
2022-10-19T09:58:06.192Z,58.61
2022-10-19T10:00:37.872Z,58.23
2022-10-19T10:03:08.426Z,55.07
2022-10-19T10:05:39.959Z,51.33
2022-10-19T10:08:15.747Z,51.48
2022-10-19T10:10:47.219Z,51.75
2022-10-19T10:13:19.043Z,50.50
2022-10-19T10:15:52.248Z,50.46
2022-10-19T10:18:20.549Z,49.05
2022-10-19T10:21:01.834Z,47.06
2022-10-19T10:23:34.273Z,47.25
2022-10-19T10:26:06.839Z,49.26
2022-10-19T10:28:34.944Z,48.70
2022-10-19T10:31:06.988Z,48.43
2022-10-19T10:33:45.053Z,49.55
2022-10-19T10:36:15.613Z,51.00
2022-10-19T10:38:47.318Z,51.27
2022-10-19T10:41:17.759Z,52.30
2022-10-19T10:43:58.462Z,51.57
2022-10-19T10:46:34.309Z,52.92
2022-10-19T10:49:05.042Z,52.54
2022-10-19T10:51:40.379Z,51.58
2022-10-19T10:54:17.082Z,51.86
2022-10-19T10:56:55.814Z,52.28
2022-10-19T10:59:27.691Z,52.81
2022-10-19T11:02:03.510Z,53.35
2022-10-19T11:04:37.639Z,54.32
2022-10-19T11:07:24.078Z,54.14
2022-10-19T11:09:55.371Z,55.09
2022-10-19T11:12:36.119Z,54.20
2022-10-19T11:15:12.896Z,54.05
2022-10-19T11:17:57.112Z,53.91
2022-10-19T11:20:29.458Z,53.57
2022-10-19T11:23:07.547Z,54.46
2022-10-19T11:25:49.136Z,52.38
2022-10-19T11:28:33.437Z,52.01
2022-10-19T11:31:08.010Z,51.84
2022-10-19T11:33:55.719Z,53.95
2022-10-19T11:36:40.740Z,53.69
2022-10-19T11:39:27.816Z,53.43
2022-10-19T11:42:02.730Z,53.61
2022-10-19T11:44:42.966Z,53.31
2022-10-19T11:47:29.232Z,54.13
2022-10-19T11:50:05.639Z,54.89
2022-10-19T11:52:41.181Z,56.64
2022-10-19T11:55:24.102Z,56.61
2022-10-19T11:57:56.961Z,55.48
2022-10-19T12:00:38.757Z,54.85
2022-10-19T12:03:43.168Z,53.67
2022-10-19T12:06:19.854Z,53.12
2022-10-19T12:09:12.008Z,53.79
2022-10-19T12:11:52.520Z,53.27
2022-10-19T12:14:28.901Z,50.92
2022-10-19T12:17:01.176Z,51.70
2022-10-19T12:19:34.277Z,52.34
2022-10-19T12:22:05.657Z,48.29
2022-10-19T12:24:35.632Z,47.48
2022-10-19T12:27:06.579Z,48.07
2022-10-19T12:29:38.099Z,48.02
2022-10-19T12:32:08.442Z,48.03
2022-10-19T12:34:46.077Z,48.50
2022-10-19T12:37:19.827Z,47.52
2022-10-19T12:39:53.273Z,47.10
2022-10-19T12:42:29.504Z,48.13
2022-10-19T12:45:11.981Z,48.38
2022-10-19T12:47:40.050Z,46.68
2022-10-19T12:50:09.136Z,47.05
2022-10-19T12:52:44.420Z,46.07
2022-10-19T12:55:28.489Z,46.07
2022-10-19T12:58:07.820Z,46.37
2022-10-19T13:00:38.799Z,46.91
2022-10-19T13:03:15.440Z,47.58
2022-10-19T13:05:43.982Z,46.93
2022-10-19T13:08:28.644Z,47.83
2022-10-19T13:11:08.401Z,48.31
2022-10-19T13:14:21.889Z,48.35
2022-10-19T13:17:09.689Z,47.90
2022-10-19T13:19:37.985Z,48.59
2022-10-19T13:22:39.771Z,49.16
2022-10-19T13:25:23.640Z,49.67
2022-10-19T13:27:52.720Z,49.54
2022-10-19T13:31:03.409Z,48.79
2022-10-19T13:33:50.460Z,49.79
2022-10-19T13:36:19.323Z,50.58
2022-10-19T13:39:03.056Z,50.98
2022-10-19T13:41:51.262Z,51.29
2022-10-19T13:44:25.032Z,50.17
2022-10-19T13:47:21.146Z,48.77
2022-10-19T13:50:02.603Z,47.34
2022-10-19T13:53:04.540Z,47.24
2022-10-19T13:55:50.382Z,47.23
2022-10-19T13:58:39.855Z,48.16
2022-10-19T14:01:20.692Z,48.97
2022-10-19T14:04:05.259Z,49.83
2022-10-19T14:06:41.321Z,50.83
2022-10-19T14:09:48.347Z,51.15
2022-10-19T14:12:18.917Z,50.70
2022-10-19T14:14:46.949Z,51.07
2022-10-19T14:17:21.163Z,51.64
2022-10-19T14:19:52.411Z,51.27
2022-10-19T14:22:31.212Z,51.07
2022-10-19T14:25:05.228Z,50.91
2022-10-19T14:27:34.380Z,51.55
2022-10-19T14:30:03.606Z,51.30
2022-10-19T14:32:35.809Z,51.80
2022-10-19T14:35:17.302Z,51.97
2022-10-19T14:37:47.377Z,50.82
2022-10-19T14:40:27.989Z,51.10
2022-10-19T14:42:58.208Z,51.56
2022-10-19T14:45:28.804Z,51.82
2022-10-19T14:47:59.857Z,52.05
2022-10-19T14:50:48.741Z,52.36
2022-10-19T14:53:38.000Z,53.06
2022-10-19T14:56:11.120Z,53.76
2022-10-19T14:58:42.807Z,54.04
2022-10-19T15:01:13.459Z,53.50
2022-10-19T15:03:44.119Z,53.67
2022-10-19T15:06:18.748Z,54.19
2022-10-19T15:08:51.551Z,53.72
2022-10-19T15:11:27.912Z,54.58
2022-10-19T15:14:03.857Z,54.32
2022-10-19T15:16:35.484Z,54.04
2022-10-19T15:19:05.571Z,54.58
2022-10-19T15:21:34.112Z,54.97
2022-10-19T15:24:22.764Z,55.37
2022-10-19T15:27:08.761Z,55.16
2022-10-19T15:29:37.860Z,54.62
2022-10-19T15:32:17.052Z,55.04
2022-10-19T15:34:46.661Z,55.32
2022-10-19T15:37:22.297Z,55.63
2022-10-19T15:39:52.251Z,55.71
2022-10-19T15:42:30.606Z,56.40
2022-10-19T15:44:58.846Z,56.35
2022-10-19T15:47:27.138Z,56.52
2022-10-19T15:49:57.970Z,56.59
2022-10-19T15:52:27.152Z,56.38
2022-10-19T15:54:58.718Z,56.54
2022-10-19T15:57:35.160Z,56.45
2022-10-19T16:00:12.723Z,55.56
2022-10-19T16:02:40.940Z,55.98
2022-10-19T16:05:10.230Z,55.56
2022-10-19T16:07:40.648Z,55.65
2022-10-19T16:10:16.550Z,55.81
2022-10-19T16:12:44.775Z,56.23
2022-10-19T16:15:13.715Z,55.72
2022-10-19T16:17:41.848Z,55.63
2022-10-19T16:20:12.180Z,55.31
2022-10-19T16:22:40.254Z,55.84
2022-10-19T16:25:10.331Z,55.75
2022-10-19T16:27:38.826Z,56.25
2022-10-19T16:30:08.337Z,56.46
2022-10-19T16:32:36.829Z,56.50
2022-10-19T16:35:05.457Z,56.79
2022-10-19T16:37:33.945Z,57.60
2022-10-19T16:40:02.417Z,57.51
2022-10-19T16:42:33.597Z,58.05
2022-10-19T16:45:02.121Z,58.29
2022-10-19T16:47:30.197Z,58.60
2022-10-19T16:50:00.711Z,59.28
2022-10-19T16:52:31.536Z,59.49
2022-10-19T16:54:59.875Z,59.70
2022-10-19T16:57:28.007Z,60.07
2022-10-19T16:59:57.619Z,60.15
2022-10-19T17:02:25.689Z,59.51
2022-10-19T17:04:53.905Z,59.30
2022-10-19T17:07:22.076Z,59.31
2022-10-19T17:09:54.699Z,58.91
2022-10-19T17:12:23.809Z,58.88
2022-10-19T17:15:02.971Z,59.35
2022-10-19T17:17:46.355Z,59.48
2022-10-19T17:20:15.798Z,59.75
2022-10-19T17:22:44.875Z,59.55
2022-10-19T17:25:17.266Z,59.73
2022-10-19T17:27:45.650Z,60.00
2022-10-19T17:30:14.160Z,60.44
2022-10-19T17:32:42.821Z,60.53
2022-10-19T17:35:12.954Z,61.09
2022-10-19T17:37:41.420Z,61.40
2022-10-19T17:40:10.844Z,61.25
2022-10-19T17:42:40.129Z,61.17
2022-10-19T17:45:09.412Z,60.92
2022-10-19T17:47:37.738Z,62.24
2022-10-19T17:50:07.224Z,61.94
2022-10-19T17:52:37.729Z,62.47
2022-10-19T17:55:12.328Z,62.68
2022-10-19T17:57:41.167Z,62.60
2022-10-19T18:00:10.301Z,62.96
2022-10-19T18:02:42.008Z,63.07
2022-10-19T18:05:11.273Z,63.06
2022-10-19T18:07:41.234Z,62.92
2022-10-19T18:10:11.330Z,63.49
2022-10-19T18:12:41.199Z,63.72
2022-10-19T18:15:11.443Z,63.37
2022-10-19T18:17:41.041Z,63.05
2022-10-19T18:20:12.235Z,63.36
2022-10-19T18:22:43.733Z,63.76
2022-10-19T18:25:13.342Z,63.88
2022-10-19T18:27:43.102Z,64.12
2022-10-19T18:30:13.297Z,64.36
2022-10-19T18:32:42.243Z,64.62
2022-10-19T18:35:10.880Z,64.74
2022-10-19T18:37:39.167Z,65.00
2022-10-19T18:40:10.594Z,65.34
2022-10-19T18:42:38.737Z,65.26
2022-10-19T18:45:08.000Z,65.60
2022-10-19T18:47:36.478Z,65.55
2022-10-19T18:50:05.588Z,65.55
2022-10-19T18:52:38.080Z,65.50
2022-10-19T18:55:09.072Z,66.10
2022-10-19T18:57:37.566Z,65.76
2022-10-19T19:00:07.239Z,66.68
2022-10-19T19:02:46.381Z,66.23
2022-10-19T19:05:15.695Z,65.87
2022-10-19T19:07:43.974Z,66.28
2022-10-19T19:10:14.519Z,65.89
2022-10-19T19:12:42.977Z,65.74
2022-10-19T19:15:12.295Z,65.55
2022-10-19T19:17:40.913Z,66.23
2022-10-19T19:20:10.147Z,66.20
2022-10-19T19:22:38.571Z,67.25
2022-10-19T19:25:07.717Z,67.26
2022-10-19T19:30:08.144Z,67.19
2022-10-19T19:32:36.754Z,67.21
2022-10-19T19:35:05.741Z,67.74
2022-10-19T19:37:34.370Z,67.65
2022-10-19T19:40:02.856Z,67.93
2022-10-19T19:42:30.962Z,67.92
2022-10-19T19:45:00.402Z,67.86
2022-10-19T19:47:29.664Z,67.66
2022-10-19T19:49:58.066Z,68.19
2022-10-19T19:52:26.344Z,67.92
2022-10-19T19:54:54.561Z,67.41
2022-10-19T19:57:23.074Z,67.73
2022-10-19T19:59:51.205Z,67.59
2022-10-19T20:02:21.229Z,67.94
2022-10-19T20:04:51.728Z,67.88
2022-10-19T20:07:19.853Z,68.26
2022-10-19T20:09:48.049Z,67.71
2022-10-19T20:12:16.353Z,67.39
2022-10-19T20:14:44.490Z,69.18
2022-10-19T20:17:12.515Z,70.04
2022-10-19T20:19:42.389Z,69.88
2022-10-19T20:22:10.619Z,69.02
2022-10-19T20:24:38.871Z,69.41
2022-10-19T20:27:07.157Z,68.71
2022-10-19T20:29:35.181Z,69.05
2022-10-19T20:32:04.807Z,68.79
2022-10-19T20:34:33.061Z,69.33
2022-10-19T20:37:03.019Z,69.07
2022-10-19T20:39:31.392Z,70.35
2022-10-19T20:41:59.547Z,70.78
2022-10-19T20:44:27.797Z,72.58
2022-10-19T20:46:55.796Z,75.56
2022-10-19T20:49:24.074Z,76.18
2022-10-19T20:51:55.053Z,75.37
2022-10-19T20:54:24.501Z,76.39
2022-10-19T20:56:52.686Z,76.61
2022-10-19T20:59:22.964Z,77.22
2022-10-19T21:01:52.138Z,75.23
2022-10-19T21:04:20.357Z,74.47
2022-10-19T21:06:50.048Z,73.33
2022-10-19T21:09:21.482Z,72.31
2022-10-19T21:11:52.283Z,71.95
2022-10-19T21:14:26.989Z,72.23
2022-10-19T21:16:57.968Z,71.24
2022-10-19T21:19:27.917Z,71.99
2022-10-19T21:21:58.533Z,72.50
2022-10-19T21:24:28.704Z,72.88
2022-10-19T21:26:58.227Z,72.77
2022-10-19T21:29:27.308Z,72.52
2022-10-19T21:31:55.565Z,73.55
2022-10-19T21:34:25.106Z,74.60
2022-10-19T21:36:53.777Z,75.41
2022-10-19T21:39:23.387Z,75.47
2022-10-19T21:41:52.071Z,75.46
2022-10-19T21:44:23.297Z,75.28
2022-10-19T21:46:51.952Z,75.40
2022-10-19T21:49:20.190Z,75.36
2022-10-19T21:51:50.779Z,75.48
2022-10-19T21:54:20.516Z,75.46
2022-10-19T21:56:49.669Z,75.46
2022-10-19T21:59:18.451Z,75.81
2022-10-19T22:01:48.580Z,75.73
2022-10-19T22:04:18.143Z,76.15
2022-10-19T22:06:46.407Z,76.62
2022-10-19T22:09:16.866Z,76.95
2022-10-19T22:11:45.361Z,77.09
2022-10-19T22:14:15.297Z,76.85
2022-10-19T22:16:43.638Z,76.61
2022-10-19T22:19:13.693Z,76.62
2022-10-19T22:21:41.994Z,76.73
2022-10-19T22:24:12.876Z,76.89
2022-10-19T22:26:42.693Z,76.94
2022-10-19T22:29:11.162Z,77.54
2022-10-19T22:31:39.296Z,77.39
2022-10-19T22:34:11.765Z,77.07
2022-10-19T22:36:41.222Z,76.74
2022-10-19T22:39:09.655Z,76.82
2022-10-19T22:41:37.754Z,76.51
2022-10-19T22:44:06.673Z,76.28
2022-10-19T22:46:35.101Z,75.75
2022-10-19T22:49:03.228Z,74.94
2022-10-19T22:51:31.366Z,74.10
2022-10-19T22:54:00.923Z,73.51
2022-10-19T22:56:29.274Z,73.14
2022-10-19T22:58:59.856Z,72.92
2022-10-19T23:01:28.821Z,72.82
2022-10-19T23:03:57.051Z,73.22
2022-10-19T23:06:25.843Z,72.89
2022-10-19T23:08:54.648Z,73.03
2022-10-19T23:11:24.473Z,72.91
2022-10-19T23:13:52.705Z,73.04
2022-10-19T23:16:20.884Z,73.05
2022-10-19T23:18:49.147Z,72.93
2022-10-19T23:21:17.413Z,72.88
2022-10-19T23:23:45.842Z,73.13
2022-10-19T23:26:15.918Z,73.24
2022-10-19T23:28:48.166Z,73.37
2022-10-19T23:31:18.764Z,73.23
2022-10-19T23:33:47.954Z,73.30
2022-10-19T23:36:20.024Z,73.11
2022-10-19T23:38:49.874Z,73.01
2022-10-19T23:41:18.532Z,73.21
2022-10-19T23:43:48.712Z,73.31
2022-10-19T23:46:16.776Z,73.26
2022-10-19T23:48:44.960Z,73.24
2022-10-19T23:51:14.579Z,73.35
2022-10-19T23:53:45.486Z,73.62
2022-10-19T23:56:16.114Z,73.65
2022-10-19T23:58:44.859Z,74.24
